Brilliance Of The Seas — C6SJ5 — position and weather

sailwx.info

Track history (hours):
 
Tides and Currents Weather Stations Pressure Air Temp Water Temp Dewpoint Dewpoint Depression Visibility Wind Speed Wind Dir Waves Ship Positions

Brilliance Of The Seas

Operator: Royal Caribbean Cruises Ltd

Last reported at 2019-Jun-16 01:00 UTC. Time now 2019-Jun-16 01:07 UTC.
Position N 58°43' W 003°36'.

Type: Ship. MMSI: 311361000.

Date/timePositionNaut miles runAvg speedWind from/ knotsBaromVisibWave heightAir tempDewpointWater temp
2019-Jun-16 01:00N 58°43' W 003°36'713.5
2019-Jun-16 00:29N 58°43' W 003°23'715.3
2019-Jun-16 00:00N 58°43' W 003°09'713.8
2019-Jun-15 23:30N 58°39' W 002°57'611.8
2019-Jun-15 23:00N 58°34' W 002°52'611.1
2019-Jun-15 22:30N 58°28' W 002°52'610.9
2019-Jun-15 22:00N 58°23' W 002°54'60 7.6
2019-Jun-15 14:00N 57°36' W 004°06'132 3.1 090 / 141009.510.8 15.9 11.8
2019-Jun-13 19:00N 57°42' E 000°00'13515.0 170 / 151001.510.8 12.010.1
2019-Jun-13 10:00N 55°30' E 000°54'8214.6 170 / 191003.510.8 15.0
2019-Jun-13 04:23N 54°16' E 001°54'9715.2
2019-Jun-12 22:00N 53°00' E 003°36'2614.9 190 / 141009.510.8 13.010.8
2019-Jun-12 20:13N 52°39' E 004°03'315.2
2019-Jun-12 20:00N 52°36' E 004°05'714.4
2019-Jun-12 19:30N 52°31' E 004°13'714.9
2019-Jun-12 19:00N 52°29' E 004°25'510.6
2019-Jun-12 18:31N 52°28' E 004°34'2 3.4
2019-Jun-12 18:01N 52°28' E 004°36'1 1.2
2019-Jun-12 17:31N 52°28' E 004°37'1 1.0
2019-Jun-12 17:01N 52°28' E 004°38'2 4.3
2019-Jun-12 16:31N 52°27' E 004°41'3 6.7
2019-Jun-12 16:00N 52°26' E 004°47'3 6.8
2019-Jun-12 15:31N 52°25' E 004°52'3 5.3
2019-Jun-12 15:00N 52°23' E 004°55'0 0.0
2019-Jun-12 14:30N 52°23' E 004°55'0 0.0
2019-Jun-12 14:00N 52°23' E 004°55'0 0.0
2019-Jun-12 13:30N 52°23' E 004°55'0 0.0
2019-Jun-12 12:57N 52°23' E 004°55'0 0.0
2019-Jun-12 12:30N 52°23' E 004°55'0 0.0
2019-Jun-12 12:00N 52°23' E 004°55'0 0.0
2019-Jun-12 11:30N 52°23' E 004°55'0 0.0
2019-Jun-12 11:00N 52°23' E 004°55'0 0.0
2019-Jun-12 10:27N 52°23' E 004°55'0 0.0
2019-Jun-12 10:00N 52°23' E 004°55'0 0.0
2019-Jun-12 09:24N 52°23' E 004°55'0 0.0
2019-Jun-12 09:00N 52°23' E 004°55'0 0.0
2019-Jun-12 08:24N 52°23' E 004°55'0 0.0
2019-Jun-12 08:00N 52°23' E 004°55'0 0.0
2019-Jun-12 07:30N 52°23' E 004°55'0 0.0
2019-Jun-12 06:57N 52°23' E 004°55'0 0.0
2019-Jun-12 06:30N 52°23' E 004°55'0 0.0
2019-Jun-12 06:00N 52°23' E 004°55'0 0.0
2019-Jun-12 05:27N 52°23' E 004°55'0 0.0
2019-Jun-12 05:00N 52°23' E 004°55'0 0.0
2019-Jun-12 04:30N 52°23' E 004°55'0 0.0
2019-Jun-12 04:00N 52°23' E 004°55'0 0.5
2019-Jun-12 03:31N 52°23' E 004°55'1 1.7
2019-Jun-12 03:01N 52°23' E 004°54'3 6.5
2019-Jun-12 02:31N 52°25' E 004°50'7 7.5
2019-Jun-12 01:31N 52°28' E 004°38'1 2.0
2019-Jun-12 01:01N 52°28' E 004°37'1 2.3
2019-Jun-12 00:30N 52°28' E 004°35'3 6.7
2019-Jun-12 00:00N 52°28' E 004°29'510.1
2019-Jun-11 23:30N 52°29' E 004°21'815.4
2019-Jun-11 23:00N 52°31' E 004°09'918.3
2019-Jun-11 22:31N 52°39' E 004°03'918.5
2019-Jun-11 22:00N 52°48' E 003°59'7694.6
2019-Jun-11 22:00N 52°42' E 003°54'1531.5 200 / 91013.510.8 13.011.013.0
2019-Jun-11 21:30N 52°57' E 003°60'1118.0
2019-Jun-11 20:52N 53°04' E 004°15'717.7
2019-Jun-11 20:28N 53°09' E 004°23'2114.4
2019-Jun-11 19:00N 53°30' E 004°30'11118.5 210 / 141013.5 5.4 14.012.5
2019-Jun-11 13:00N 55°06' E 006°06'8119.7 050 / 181013.5 5.4 14.011.8
2019-Jun-11 08:54N 56°16' E 007°16'718.3
2019-Jun-11 08:30N 56°22' E 007°23'1018.3
2019-Jun-11 07:58N 56°31' E 007°31'918.5
2019-Jun-11 07:30N 56°39' E 007°39'918.3
2019-Jun-11 07:00N 56°46' E 007°47'918.7
2019-Jun-11 06:31N 56°54' E 007°56'1019.1
2019-Jun-11 06:00N 57°02' E 008°06'1019.0
2019-Jun-11 05:30N 57°10' E 008°16'1018.8
2019-Jun-11 05:00N 57°17' E 008°28'919.0
2019-Jun-11 04:30N 57°23' E 008°42'919.0
2019-Jun-11 04:01N 57°29' E 008°55'6362.5
2019-Jun-11 04:00N 57°24' E 008°48'1532.0 050 / 181018.5 5.4 13.0
2019-Jun-11 03:30N 57°35' E 009°07'918.5
2019-Jun-11 03:00N 57°41' E 009°22'918.5
2019-Jun-11 02:31N 57°44' E 009°38'918.7
2019-Jun-11 02:00N 57°47' E 009°54'918.6
2019-Jun-11 01:30N 57°49' E 010°11'918.9
2019-Jun-11 01:00N 57°50' E 010°29'4244.8
2019-Jun-11 01:00N 57°48' E 010°24'1224.1 020 / 181019.5 5.4 14.0
2019-Jun-11 00:30N 57°49' E 010°46'918.9
2019-Jun-11 00:00N 57°43' E 010°60'918.6
2019-Jun-10 23:31N 57°37' E 011°13'918.8
2019-Jun-10 23:01N 57°31' E 011°25'918.3
2019-Jun-10 22:30N 57°22' E 011°32'918.7
2019-Jun-10 22:00N 57°13' E 011°37'918.7
2019-Jun-10 21:30N 57°04' E 011°41'918.6
2019-Jun-10 21:00N 56°55' E 011°47'918.8
2019-Jun-10 20:30N 56°47' E 011°54'918.6
2019-Jun-10 20:00N 56°38' E 011°58'918.6
2019-Jun-10 19:31N 56°29' E 012°02'2918.6
2019-Jun-10 17:58N 56°06' E 012°34'817.6
2019-Jun-10 17:31N 55°59' E 012°42'816.9
2019-Jun-10 17:01N 55°51' E 012°45'816.0
2019-Jun-10 16:30N 55°44' E 012°39'2 5.0
2019-Jun-10 16:00N 55°42' E 012°36'0 0.0
2019-Jun-10 15:20N 55°42' E 012°36'0 0.0
2019-Jun-10 14:59N 55°42' E 012°36'0 0.0
2019-Jun-10 14:29N 55°42' E 012°36'0 0.0
2019-Jun-10 13:53N 55°42' E 012°36'0 0.0
2019-Jun-10 13:14N 55°42' E 012°36'0 0.0
2019-Jun-10 12:50N 55°42' E 012°36'0 0.0
2019-Jun-10 12:29N 55°42' E 012°36'0 0.0
2019-Jun-10 11:53N 55°42' E 012°36'0 0.0
2019-Jun-10 11:29N 55°42' E 012°36'0 0.0
2019-Jun-10 10:59N 55°42' E 012°36'0 0.0
2019-Jun-10 10:29N 55°42' E 012°36'0 0.0
2019-Jun-10 09:59N 55°42' E 012°36'0 0.0
2019-Jun-10 09:29N 55°42' E 012°36'0 0.0
2019-Jun-10 08:59N 55°42' E 012°36'0 0.0
2019-Jun-10 08:23N 55°42' E 012°36'0 0.0
2019-Jun-10 07:47N 55°42' E 012°36'0 0.0
2019-Jun-10 07:05N 55°42' E 012°36'0 0.0
2019-Jun-10 06:56N 55°42' E 012°36'0 0.0
2019-Jun-10 06:29N 55°42' E 012°36'0 0.0
2019-Jun-10 05:57N 55°42' E 012°36'2 5.7
2019-Jun-10 05:31N 55°44' E 012°39'612.9
2019-Jun-10 05:00N 55°50' E 012°43'611.3
2019-Jun-10 04:30N 55°55' E 012°38'611.2
2019-Jun-10 04:00N 56°00' E 012°40'611.2
2019-Jun-10 03:30N 56°05' E 012°35'510.9
2019-Jun-10 03:01N 56°08' E 012°27'5510.5
2019-Jun-09 21:46N 56°58' E 011°43'311.2
2019-Jun-09 21:30N 57°01' E 011°41'611.1
2019-Jun-09 21:00N 57°06' E 011°38'611.3
2019-Jun-09 20:30N 57°11' E 011°34'611.3
2019-Jun-09 20:00N 57°17' E 011°30'611.4
2019-Jun-09 19:31N 57°22' E 011°27'611.1
2019-Jun-09 19:00N 57°27' E 011°23'9579.5
2019-Jun-09 19:00N 57°18' E 011°24'1428.2 250 / 151022.510.8 16.011.2
2019-Jun-09 18:30N 57°31' E 011°16'611.1
2019-Jun-09 18:00N 57°35' E 011°08'510.9
2019-Jun-09 17:31N 57°38' E 011°01'611.1
2019-Jun-09 17:01N 57°42' E 010°53'611.1
2019-Jun-09 16:31N 57°43' E 010°42'4 7.6
2019-Jun-09 16:01N 57°43' E 010°35'0 0.1
2019-Jun-09 15:25N 57°43' E 010°35'0 0.0
2019-Jun-09 14:58N 57°43' E 010°35'0 0.0
2019-Jun-09 14:25N 57°43' E 010°35'0 0.0
2019-Jun-09 13:55N 57°43' E 010°35'0 0.0
2019-Jun-09 13:22N 57°43' E 010°35'0 0.0
2019-Jun-09 12:52N 57°43' E 010°35'0 0.0
2019-Jun-09 12:25N 57°43' E 010°35'0 0.0
2019-Jun-09 11:58N 57°43' E 010°35'0 0.0
2019-Jun-09 11:22N 57°43' E 010°35'0 0.0
2019-Jun-09 10:55N 57°43' E 010°35'0 0.0
2019-Jun-09 10:25N 57°43' E 010°35'0 0.0
2019-Jun-09 09:58N 57°43' E 010°35'5 9.3
2019-Jun-09 09:25N 57°42' E 010°45'718.2
2019-Jun-09 09:01N 57°40' E 010°58'918.1
2019-Jun-09 08:30N 57°36' E 011°13'1019.4
2019-Jun-09 08:01N 57°29' E 011°26'1019.5
2019-Jun-09 07:31N 57°20' E 011°33'1020.0
2019-Jun-09 07:01N 57°11' E 011°39'1019.4
2019-Jun-09 06:30N 57°01' E 011°45'5120.2
2019-Jun-09 04:00N 56°12' E 011°24'5618.6 210 / 251018.5 5.4 14.0
2019-Jun-09 01:00N 55°18' E 011°00'614.2 200 / 251019.5 5.4 14.0
2019-Jun-09 00:33N 55°13' E 011°06'520.3
2019-Jun-09 00:17N 55°08' E 011°03'620.4
2019-Jun-08 23:58N 55°01' E 011°02'919.1
2019-Jun-08 23:31N 54°54' E 010°54'918.5
2019-Jun-08 23:01N 54°45' E 010°53'917.3
2019-Jun-08 22:31N 54°39' E 011°04'1122.7
2019-Jun-08 22:01N 54°34' E 011°21'1122.6
2019-Jun-08 21:31N 54°28' E 011°38'2418.6
2019-Jun-08 20:14N 54°36' E 012°17'416.5
2019-Jun-08 20:00N 54°36' E 012°24'7421.7 190 / 231021.510.8 16.011.2
2019-Jun-08 16:36N 55°12' E 014°16'322.4
2019-Jun-08 16:27N 55°14' E 014°20'510.2
2019-Jun-08 16:00N 55°18' E 014°24'2628.6 220 / 191020.510.8 18.012.914.0
2019-Jun-08 15:04N 55°38' E 014°54'222.5
2019-Jun-08 15:00N 55°40' E 014°56'1122.1
2019-Jun-08 14:30N 55°48' E 015°08'1019.8
2019-Jun-08 14:01N 55°56' E 015°19'917.5
2019-Jun-08 13:30N 56°01' E 015°31'2 4.6
2019-Jun-08 13:00N 56°03' E 015°34'1 1.9
2019-Jun-08 12:30N 56°02' E 015°33'5 9.2
2019-Jun-08 12:01N 55°58' E 015°29'510.4
2019-Jun-08 11:30N 56°03' E 015°33'1 2.4
2019-Jun-08 11:00N 56°02' E 015°35'4 8.9
2019-Jun-08 10:30N 55°58' E 015°39'2 3.2
2019-Jun-08 10:00N 55°57' E 015°40'0 0.3
2019-Jun-08 09:30N 55°57' E 015°40'3 5.1
2019-Jun-08 09:01N 55°55' E 015°44'917.8
2019-Jun-08 08:30N 55°52' E 015°58'917.5
2019-Jun-08 08:00N 55°56' E 016°12'1019.5
2019-Jun-08 07:31N 56°01' E 016°27'1019.3
2019-Jun-08 07:00N 56°07' E 016°41'9571.5
2019-Jun-08 07:00N 56°00' E 016°30'1938.8 140 / 111016.5 5.4 14.0
2019-Jun-08 06:30N 56°13' E 016°55'1019.3
2019-Jun-08 06:01N 56°18' E 017°09'1019.4
2019-Jun-08 05:30N 56°24' E 017°23'1019.3
2019-Jun-08 05:00N 56°30' E 017°37'918.9
2019-Jun-08 04:31N 56°36' E 017°50'919.0
2019-Jun-08 04:00N 56°42' E 018°04'8478.6
2019-Jun-08 04:00N 56°36' E 017°54'3425.4 180 / 71016.5 0.3 12.0
2019-Jun-08 02:39N 56°59' E 018°39'2 2.4
2019-Jun-08 02:00N 57°00' E 018°42'17321.6 220 / 51016.5 2.2 13.0
2019-Jun-07 18:00N 59°18' E 022°00'1647.5 130 / 411017.510.8
2019-Jun-07 17:39N 59°29' E 022°24'322.7
2019-Jun-07 17:30N 59°31' E 022°30'1122.8
2019-Jun-07 17:00N 59°34' E 022°51'1223.1
2019-Jun-07 16:31N 59°37' E 023°13'1422.9
2019-Jun-07 15:53N 59°39' E 023°41'1222.8
2019-Jun-07 15:22N 59°43' E 024°03'822.7
2019-Jun-07 15:01N 59°45' E 024°19'1122.3
2019-Jun-07 14:30N 59°50' E 024°38'1020.0
2019-Jun-07 14:01N 59°58' E 024°51'611.3
2019-Jun-07 13:31N 60°04' E 024°54'510.9
2019-Jun-07 13:00N 60°09' E 024°55'0 0.0
2019-Jun-07 12:30N 60°09' E 024°55'0 0.0
2019-Jun-07 12:00N 60°09' E 024°55'0 0.0
2019-Jun-07 11:30N 60°09' E 024°55'0 0.0
2019-Jun-07 11:00N 60°09' E 024°55'0 0.0
2019-Jun-07 10:30N 60°09' E 024°55'0 0.0
2019-Jun-07 10:00N 60°09' E 024°55'0 0.0
2019-Jun-07 09:30N 60°09' E 024°55'0 0.0
2019-Jun-07 09:00N 60°09' E 024°55'0 0.0
2019-Jun-07 08:30N 60°09' E 024°55'0 0.0
2019-Jun-07 08:00N 60°09' E 024°55'0 0.0
2019-Jun-07 07:30N 60°09' E 024°55'0 0.0
2019-Jun-07 07:00N 60°09' E 024°55'0 0.0
2019-Jun-07 06:30N 60°09' E 024°55'0 0.0
2019-Jun-07 06:00N 60°09' E 024°55'0 0.0
2019-Jun-07 05:30N 60°09' E 024°55'0 0.0
2019-Jun-07 05:00N 60°09' E 024°55'0 0.0
2019-Jun-07 04:30N 60°09' E 024°55'0 0.0
2019-Jun-07 04:00N 60°09' E 024°55'0 0.0
2019-Jun-07 03:30N 60°09' E 024°55'1 1.5
2019-Jun-07 03:00N 60°09' E 024°54'612.5
2019-Jun-07 02:30N 60°02' E 024°54'714.0
2019-Jun-07 02:01N 59°58' E 025°06'816.7
2019-Jun-07 01:30N 59°56' E 025°22'1215.8
2019-Jun-07 00:46N 59°56' E 025°46'416.4
2019-Jun-07 00:30N 59°57' E 025°54'816.6
2019-Jun-07 00:00N 59°59' E 026°10'917.2
2019-Jun-06 23:30N 60°01' E 026°27'918.0
2019-Jun-06 23:00N 60°01' E 026°45'918.3
2019-Jun-06 22:30N 59°60' E 027°03'918.3
2019-Jun-06 22:01N 60°05' E 027°19'918.5
2019-Jun-06 21:30N 60°09' E 027°35'816.7
2019-Jun-06 21:00N 60°11' E 027°51'6382.6
2019-Jun-06 21:00N 60°06' E 027°48'1021.7 020 / 171021.510.8
2019-Jun-06 20:31N 60°09' E 028°08'917.1
2019-Jun-06 20:00N 60°06' E 028°23'816.9
2019-Jun-06 19:30N 60°03' E 028°39'917.5
2019-Jun-06 19:00N 60°03' E 028°57'3212.1
2019-Jun-06 16:24N 59°56' E 029°59'4 9.0
2019-Jun-06 16:00N 59°56' E 030°06'3 6.0
2019-Jun-06 15:30N 59°57' E 030°12'0 0.0
2019-Jun-06 14:59N 59°57' E 030°12'0 0.0
2019-Jun-06 14:29N 59°57' E 030°12'0 0.0
2019-Jun-06 13:59N 59°57' E 030°12'0 0.0
2019-Jun-06 13:29N 59°57' E 030°12'0 0.0
2019-Jun-06 12:59N 59°57' E 030°12'0 0.0
2019-Jun-06 12:29N 59°57' E 030°12'0 0.0
2019-Jun-06 11:56N 59°57' E 030°12'0 0.0
2019-Jun-06 11:23N 59°57' E 030°12'0 0.0
2019-Jun-06 10:59N 59°57' E 030°12'0 0.0
2019-Jun-06 10:29N 59°57' E 030°12'0 0.0
2019-Jun-06 09:44N 59°57' E 030°12'0 0.0
2019-Jun-06 09:29N 59°57' E 030°12'0 0.0
2019-Jun-06 08:59N 59°57' E 030°12'0 0.0
2019-Jun-06 08:29N 59°57' E 030°12'0 0.0
2019-Jun-06 07:53N 59°57' E 030°12'0 0.0
2019-Jun-06 07:26N 59°57' E 030°12'0 0.0
2019-Jun-06 06:59N 59°57' E 030°12'0 0.0
2019-Jun-06 06:29N 59°57' E 030°12'0 0.0
2019-Jun-06 05:59N 59°57' E 030°12'0 0.0
2019-Jun-06 05:26N 59°57' E 030°12'0 0.0
2019-Jun-06 04:59N 59°57' E 030°12'0 0.0
2019-Jun-06 04:26N 59°57' E 030°12'0 0.0
2019-Jun-06 03:56N 59°57' E 030°12'0 0.0
2019-Jun-06 03:29N 59°57' E 030°12'0 0.0
2019-Jun-06 02:59N 59°57' E 030°12'0 0.0
2019-Jun-06 02:29N 59°57' E 030°12'0 0.0
2019-Jun-06 01:56N 59°57' E 030°12'0 0.0
2019-Jun-06 01:23N 59°57' E 030°12'  
Track history (hours):
 
Tides and Currents Weather Stations Pressure Air Temp Water Temp Dewpoint Dewpoint Depression Visibility Wind Speed Wind Dir Waves Ship Positions

Brilliance Of The Seas

Operator: Royal Caribbean Cruises Ltd

Last reported at 2019-Jun-16 01:00 UTC. Time now 2019-Jun-16 01:07 UTC.
Position N 58°43' W 003°36'.

Type: Ship. MMSI: 311361000.

Date/timePositionNaut miles runAvg speedWind from/ knotsBaromVisibWave heightAir tempDewpointWater temp
2019-Jun-16 01:00N 58°43' W 003°36'713.5
2019-Jun-16 00:29N 58°43' W 003°23'715.3
2019-Jun-16 00:00N 58°43' W 003°09'713.8
2019-Jun-15 23:30N 58°39' W 002°57'611.8
2019-Jun-15 23:00N 58°34' W 002°52'611.1
2019-Jun-15 22:30N 58°28' W 002°52'610.9
2019-Jun-15 22:00N 58°23' W 002°54'60 7.6
2019-Jun-15 14:00N 57°36' W 004°06'132 3.1 090 / 141009.510.8 15.9 11.8
2019-Jun-13 19:00N 57°42' E 000°00'13515.0 170 / 151001.510.8 12.010.1
2019-Jun-13 10:00N 55°30' E 000°54'8214.6 170 / 191003.510.8 15.0
2019-Jun-13 04:23N 54°16' E 001°54'9715.2
2019-Jun-12 22:00N 53°00' E 003°36'2614.9 190 / 141009.510.8 13.010.8
2019-Jun-12 20:13N 52°39' E 004°03'315.2
2019-Jun-12 20:00N 52°36' E 004°05'714.4
2019-Jun-12 19:30N 52°31' E 004°13'714.9
2019-Jun-12 19:00N 52°29' E 004°25'510.6
2019-Jun-12 18:31N 52°28' E 004°34'2 3.4
2019-Jun-12 18:01N 52°28' E 004°36'1 1.2
2019-Jun-12 17:31N 52°28' E 004°37'1 1.0
2019-Jun-12 17:01N 52°28' E 004°38'2 4.3
2019-Jun-12 16:31N 52°27' E 004°41'3 6.7
2019-Jun-12 16:00N 52°26' E 004°47'3 6.8
2019-Jun-12 15:31N 52°25' E 004°52'3 5.3
2019-Jun-12 15:00N 52°23' E 004°55'0 0.0
2019-Jun-12 14:30N 52°23' E 004°55'0 0.0
2019-Jun-12 14:00N 52°23' E 004°55'0 0.0
2019-Jun-12 13:30N 52°23' E 004°55'0 0.0
2019-Jun-12 12:57N 52°23' E 004°55'0 0.0
2019-Jun-12 12:30N 52°23' E 004°55'0 0.0
2019-Jun-12 12:00N 52°23' E 004°55'0 0.0
2019-Jun-12 11:30N 52°23' E 004°55'0 0.0
2019-Jun-12 11:00N 52°23' E 004°55'0 0.0
2019-Jun-12 10:27N 52°23' E 004°55'0 0.0
2019-Jun-12 10:00N 52°23' E 004°55'0 0.0
2019-Jun-12 09:24N 52°23' E 004°55'0 0.0
2019-Jun-12 09:00N 52°23' E 004°55'0 0.0
2019-Jun-12 08:24N 52°23' E 004°55'0 0.0
2019-Jun-12 08:00N 52°23' E 004°55'0 0.0
2019-Jun-12 07:30N 52°23' E 004°55'0 0.0
2019-Jun-12 06:57N 52°23' E 004°55'0 0.0
2019-Jun-12 06:30N 52°23' E 004°55'0 0.0
2019-Jun-12 06:00N 52°23' E 004°55'0 0.0
2019-Jun-12 05:27N 52°23' E 004°55'0 0.0
2019-Jun-12 05:00N 52°23' E 004°55'0 0.0
2019-Jun-12 04:30N 52°23' E 004°55'0 0.0
2019-Jun-12 04:00N 52°23' E 004°55'0 0.5
2019-Jun-12 03:31N 52°23' E 004°55'1 1.7
2019-Jun-12 03:01N 52°23' E 004°54'3 6.5
2019-Jun-12 02:31N 52°25' E 004°50'7 7.5
2019-Jun-12 01:31N 52°28' E 004°38'1 2.0
2019-Jun-12 01:01N 52°28' E 004°37'1 2.3
2019-Jun-12 00:30N 52°28' E 004°35'3 6.7
2019-Jun-12 00:00N 52°28' E 004°29'510.1
2019-Jun-11 23:30N 52°29' E 004°21'815.4
2019-Jun-11 23:00N 52°31' E 004°09'918.3
2019-Jun-11 22:31N 52°39' E 004°03'918.5
2019-Jun-11 22:00N 52°48' E 003°59'7694.6
2019-Jun-11 22:00N 52°42' E 003°54'1531.5 200 / 91013.510.8 13.011.013.0
2019-Jun-11 21:30N 52°57' E 003°60'1118.0
2019-Jun-11 20:52N 53°04' E 004°15'717.7
2019-Jun-11 20:28N 53°09' E 004°23'2114.4
2019-Jun-11 19:00N 53°30' E 004°30'11118.5 210 / 141013.5 5.4 14.012.5
2019-Jun-11 13:00N 55°06' E 006°06'8119.7 050 / 181013.5 5.4 14.011.8
2019-Jun-11 08:54N 56°16' E 007°16'718.3
2019-Jun-11 08:30N 56°22' E 007°23'1018.3
2019-Jun-11 07:58N 56°31' E 007°31'918.5
2019-Jun-11 07:30N 56°39' E 007°39'918.3
2019-Jun-11 07:00N 56°46' E 007°47'918.7
2019-Jun-11 06:31N 56°54' E 007°56'1019.1
2019-Jun-11 06:00N 57°02' E 008°06'1019.0
2019-Jun-11 05:30N 57°10' E 008°16'1018.8
2019-Jun-11 05:00N 57°17' E 008°28'919.0
2019-Jun-11 04:30N 57°23' E 008°42'919.0
2019-Jun-11 04:01N 57°29' E 008°55'6362.5
2019-Jun-11 04:00N 57°24' E 008°48'1532.0 050 / 181018.5 5.4 13.0
2019-Jun-11 03:30N 57°35' E 009°07'918.5
2019-Jun-11 03:00N 57°41' E 009°22'918.5
2019-Jun-11 02:31N 57°44' E 009°38'918.7
2019-Jun-11 02:00N 57°47' E 009°54'918.6
2019-Jun-11 01:30N 57°49' E 010°11'918.9
2019-Jun-11 01:00N 57°50' E 010°29'4244.8
2019-Jun-11 01:00N 57°48' E 010°24'1224.1 020 / 181019.5 5.4 14.0
2019-Jun-11 00:30N 57°49' E 010°46'918.9
2019-Jun-11 00:00N 57°43' E 010°60'918.6
2019-Jun-10 23:31N 57°37' E 011°13'918.8
2019-Jun-10 23:01N 57°31' E 011°25'918.3
2019-Jun-10 22:30N 57°22' E 011°32'918.7
2019-Jun-10 22:00N 57°13' E 011°37'918.7
2019-Jun-10 21:30N 57°04' E 011°41'918.6
2019-Jun-10 21:00N 56°55' E 011°47'918.8
2019-Jun-10 20:30N 56°47' E 011°54'918.6
2019-Jun-10 20:00N 56°38' E 011°58'918.6
2019-Jun-10 19:31N 56°29' E 012°02'2918.6
2019-Jun-10 17:58N 56°06' E 012°34'817.6
2019-Jun-10 17:31N 55°59' E 012°42'816.9
2019-Jun-10 17:01N 55°51' E 012°45'816.0
2019-Jun-10 16:30N 55°44' E 012°39'2 5.0
2019-Jun-10 16:00N 55°42' E 012°36'0 0.0
2019-Jun-10 15:20N 55°42' E 012°36'0 0.0
2019-Jun-10 14:59N 55°42' E 012°36'0 0.0
2019-Jun-10 14:29N 55°42' E 012°36'0 0.0
2019-Jun-10 13:53N 55°42' E 012°36'0 0.0
2019-Jun-10 13:14N 55°42' E 012°36'0 0.0
2019-Jun-10 12:50N 55°42' E 012°36'0 0.0
2019-Jun-10 12:29N 55°42' E 012°36'0 0.0
2019-Jun-10 11:53N 55°42' E 012°36'0 0.0
2019-Jun-10 11:29N 55°42' E 012°36'0 0.0
2019-Jun-10 10:59N 55°42' E 012°36'0 0.0
2019-Jun-10 10:29N 55°42' E 012°36'0 0.0
2019-Jun-10 09:59N 55°42' E 012°36'0 0.0
2019-Jun-10 09:29N 55°42' E 012°36'0 0.0
2019-Jun-10 08:59N 55°42' E 012°36'0 0.0
2019-Jun-10 08:23N 55°42' E 012°36'0 0.0
2019-Jun-10 07:47N 55°42' E 012°36'0 0.0
2019-Jun-10 07:05N 55°42' E 012°36'0 0.0
2019-Jun-10 06:56N 55°42' E 012°36'0 0.0
2019-Jun-10 06:29N 55°42' E 012°36'0 0.0
2019-Jun-10 05:57N 55°42' E 012°36'2 5.7
2019-Jun-10 05:31N 55°44' E 012°39'612.9
2019-Jun-10 05:00N 55°50' E 012°43'611.3
2019-Jun-10 04:30N 55°55' E 012°38'611.2
2019-Jun-10 04:00N 56°00' E 012°40'611.2
2019-Jun-10 03:30N 56°05' E 012°35'510.9
2019-Jun-10 03:01N 56°08' E 012°27'5510.5
2019-Jun-09 21:46N 56°58' E 011°43'311.2
2019-Jun-09 21:30N 57°01' E 011°41'611.1
2019-Jun-09 21:00N 57°06' E 011°38'611.3
2019-Jun-09 20:30N 57°11' E 011°34'611.3
2019-Jun-09 20:00N 57°17' E 011°30'611.4
2019-Jun-09 19:31N 57°22' E 011°27'611.1
2019-Jun-09 19:00N 57°27' E 011°23'9579.5
2019-Jun-09 19:00N 57°18' E 011°24'1428.2 250 / 151022.510.8 16.011.2
2019-Jun-09 18:30N 57°31' E 011°16'611.1
2019-Jun-09 18:00N 57°35' E 011°08'510.9
2019-Jun-09 17:31N 57°38' E 011°01'611.1
2019-Jun-09 17:01N 57°42' E 010°53'611.1
2019-Jun-09 16:31N 57°43' E 010°42'4 7.6
2019-Jun-09 16:01N 57°43' E 010°35'0 0.1
2019-Jun-09 15:25N 57°43' E 010°35'0 0.0
2019-Jun-09 14:58N 57°43' E 010°35'0 0.0
2019-Jun-09 14:25N 57°43' E 010°35'0 0.0
2019-Jun-09 13:55N 57°43' E 010°35'0 0.0
2019-Jun-09 13:22N 57°43' E 010°35'0 0.0
2019-Jun-09 12:52N 57°43' E 010°35'0 0.0
2019-Jun-09 12:25N 57°43' E 010°35'0 0.0
2019-Jun-09 11:58N 57°43' E 010°35'0 0.0
2019-Jun-09 11:22N 57°43' E 010°35'0 0.0
2019-Jun-09 10:55N 57°43' E 010°35'0 0.0
2019-Jun-09 10:25N 57°43' E 010°35'0 0.0
2019-Jun-09 09:58N 57°43' E 010°35'5 9.3
2019-Jun-09 09:25N 57°42' E 010°45'718.2
2019-Jun-09 09:01N 57°40' E 010°58'918.1
2019-Jun-09 08:30N 57°36' E 011°13'1019.4
2019-Jun-09 08:01N 57°29' E 011°26'1019.5
2019-Jun-09 07:31N 57°20' E 011°33'1020.0
2019-Jun-09 07:01N 57°11' E 011°39'1019.4
2019-Jun-09 06:30N 57°01' E 011°45'5120.2
2019-Jun-09 04:00N 56°12' E 011°24'5618.6 210 / 251018.5 5.4 14.0
2019-Jun-09 01:00N 55°18' E 011°00'614.2 200 / 251019.5 5.4 14.0
2019-Jun-09 00:33N 55°13' E 011°06'520.3
2019-Jun-09 00:17N 55°08' E 011°03'620.4
2019-Jun-08 23:58N 55°01' E 011°02'919.1
2019-Jun-08 23:31N 54°54' E 010°54'918.5
2019-Jun-08 23:01N 54°45' E 010°53'917.3
2019-Jun-08 22:31N 54°39' E 011°04'1122.7
2019-Jun-08 22:01N 54°34' E 011°21'1122.6
2019-Jun-08 21:31N 54°28' E 011°38'2418.6
2019-Jun-08 20:14N 54°36' E 012°17'416.5
2019-Jun-08 20:00N 54°36' E 012°24'7421.7 190 / 231021.510.8 16.011.2
2019-Jun-08 16:36N 55°12' E 014°16'322.4
2019-Jun-08 16:27N 55°14' E 014°20'510.2
2019-Jun-08 16:00N 55°18' E 014°24'2628.6 220 / 191020.510.8 18.012.914.0
2019-Jun-08 15:04N 55°38' E 014°54'222.5
2019-Jun-08 15:00N 55°40' E 014°56'1122.1
2019-Jun-08 14:30N 55°48' E 015°08'1019.8
2019-Jun-08 14:01N 55°56' E 015°19'917.5
2019-Jun-08 13:30N 56°01' E 015°31'2 4.6
2019-Jun-08 13:00N 56°03' E 015°34'1 1.9
2019-Jun-08 12:30N 56°02' E 015°33'5 9.2
2019-Jun-08 12:01N 55°58' E 015°29'510.4
2019-Jun-08 11:30N 56°03' E 015°33'1 2.4
2019-Jun-08 11:00N 56°02' E 015°35'4 8.9
2019-Jun-08 10:30N 55°58' E 015°39'2 3.2
2019-Jun-08 10:00N 55°57' E 015°40'0 0.3
2019-Jun-08 09:30N 55°57' E 015°40'3 5.1
2019-Jun-08 09:01N 55°55' E 015°44'917.8
2019-Jun-08 08:30N 55°52' E 015°58'917.5
2019-Jun-08 08:00N 55°56' E 016°12'1019.5
2019-Jun-08 07:31N 56°01' E 016°27'1019.3
2019-Jun-08 07:00N 56°07' E 016°41'9571.5
2019-Jun-08 07:00N 56°00' E 016°30'1938.8 140 / 111016.5 5.4 14.0
2019-Jun-08 06:30N 56°13' E 016°55'1019.3
2019-Jun-08 06:01N 56°18' E 017°09'1019.4
2019-Jun-08 05:30N 56°24' E 017°23'1019.3
2019-Jun-08 05:00N 56°30' E 017°37'918.9
2019-Jun-08 04:31N 56°36' E 017°50'919.0
2019-Jun-08 04:00N 56°42' E 018°04'8478.6
2019-Jun-08 04:00N 56°36' E 017°54'3425.4 180 / 71016.5 0.3 12.0
2019-Jun-08 02:39N 56°59' E 018°39'2 2.4
2019-Jun-08 02:00N 57°00' E 018°42'17321.6 220 / 51016.5 2.2 13.0
2019-Jun-07 18:00N 59°18' E 022°00'1647.5 130 / 411017.510.8
2019-Jun-07 17:39N 59°29' E 022°24'322.7
2019-Jun-07 17:30N 59°31' E 022°30'1122.8
2019-Jun-07 17:00N 59°34' E 022°51'1223.1
2019-Jun-07 16:31N 59°37' E 023°13'1422.9
2019-Jun-07 15:53N 59°39' E 023°41'1222.8
2019-Jun-07 15:22N 59°43' E 024°03'822.7
2019-Jun-07 15:01N 59°45' E 024°19'1122.3
2019-Jun-07 14:30N 59°50' E 024°38'1020.0
2019-Jun-07 14:01N 59°58' E 024°51'611.3
2019-Jun-07 13:31N 60°04' E 024°54'510.9
2019-Jun-07 13:00N 60°09' E 024°55'0 0.0
2019-Jun-07 12:30N 60°09' E 024°55'0 0.0
2019-Jun-07 12:00N 60°09' E 024°55'0 0.0
2019-Jun-07 11:30N 60°09' E 024°55'0 0.0
2019-Jun-07 11:00N 60°09' E 024°55'0 0.0
2019-Jun-07 10:30N 60°09' E 024°55'0 0.0
2019-Jun-07 10:00N 60°09' E 024°55'0 0.0
2019-Jun-07 09:30N 60°09' E 024°55'0 0.0
2019-Jun-07 09:00N 60°09' E 024°55'0 0.0
2019-Jun-07 08:30N 60°09' E 024°55'0 0.0
2019-Jun-07 08:00N 60°09' E 024°55'0 0.0
2019-Jun-07 07:30N 60°09' E 024°55'0 0.0
2019-Jun-07 07:00N 60°09' E 024°55'0 0.0
2019-Jun-07 06:30N 60°09' E 024°55'0 0.0
2019-Jun-07 06:00N 60°09' E 024°55'0 0.0
2019-Jun-07 05:30N 60°09' E 024°55'0 0.0
2019-Jun-07 05:00N 60°09' E 024°55'0 0.0
2019-Jun-07 04:30N 60°09' E 024°55'0 0.0
2019-Jun-07 04:00N 60°09' E 024°55'0 0.0
2019-Jun-07 03:30N 60°09' E 024°55'1 1.5
2019-Jun-07 03:00N 60°09' E 024°54'612.5
2019-Jun-07 02:30N 60°02' E 024°54'714.0
2019-Jun-07 02:01N 59°58' E 025°06'816.7
2019-Jun-07 01:30N 59°56' E 025°22'1215.8
2019-Jun-07 00:46N 59°56' E 025°46'416.4
2019-Jun-07 00:30N 59°57' E 025°54'816.6
2019-Jun-07 00:00N 59°59' E 026°10'917.2
2019-Jun-06 23:30N 60°01' E 026°27'918.0
2019-Jun-06 23:00N 60°01' E 026°45'918.3
2019-Jun-06 22:30N 59°60' E 027°03'918.3
2019-Jun-06 22:01N 60°05' E 027°19'918.5
2019-Jun-06 21:30N 60°09' E 027°35'816.7
2019-Jun-06 21:00N 60°11' E 027°51'6382.6
2019-Jun-06 21:00N 60°06' E 027°48'1021.7 020 / 171021.510.8
2019-Jun-06 20:31N 60°09' E 028°08'917.1
2019-Jun-06 20:00N 60°06' E 028°23'816.9
2019-Jun-06 19:30N 60°03' E 028°39'917.5
2019-Jun-06 19:00N 60°03' E 028°57'3212.1
2019-Jun-06 16:24N 59°56' E 029°59'4 9.0
2019-Jun-06 16:00N 59°56' E 030°06'3 6.0
2019-Jun-06 15:30N 59°57' E 030°12'0 0.0
2019-Jun-06 14:59N 59°57' E 030°12'0 0.0
2019-Jun-06 14:29N 59°57' E 030°12'0 0.0
2019-Jun-06 13:59N 59°57' E 030°12'0 0.0
2019-Jun-06 13:29N 59°57' E 030°12'0 0.0
2019-Jun-06 12:59N 59°57' E 030°12'0 0.0
2019-Jun-06 12:29N 59°57' E 030°12'0 0.0
2019-Jun-06 11:56N 59°57' E 030°12'0 0.0
2019-Jun-06 11:23N 59°57' E 030°12'0 0.0
2019-Jun-06 10:59N 59°57' E 030°12'0 0.0
2019-Jun-06 10:29N 59°57' E 030°12'0 0.0
2019-Jun-06 09:44N 59°57' E 030°12'0 0.0
2019-Jun-06 09:29N 59°57' E 030°12'0 0.0
2019-Jun-06 08:59N 59°57' E 030°12'0 0.0
2019-Jun-06 08:29N 59°57' E 030°12'0 0.0
2019-Jun-06 07:53N 59°57' E 030°12'0 0.0
2019-Jun-06 07:26N 59°57' E 030°12'0 0.0
2019-Jun-06 06:59N 59°57' E 030°12'0 0.0
2019-Jun-06 06:29N 59°57' E 030°12'0 0.0
2019-Jun-06 05:59N 59°57' E 030°12'0 0.0
2019-Jun-06 05:26N 59°57' E 030°12'0 0.0
2019-Jun-06 04:59N 59°57' E 030°12'0 0.0
2019-Jun-06 04:26N 59°57' E 030°12'0 0.0
2019-Jun-06 03:56N 59°57' E 030°12'0 0.0
2019-Jun-06 03:29N 59°57' E 030°12'0 0.0
2019-Jun-06 02:59N 59°57' E 030°12'0 0.0
2019-Jun-06 02:29N 59°57' E 030°12'0 0.0
2019-Jun-06 01:56N 59°57' E 030°12'0 0.0
2019-Jun-06 01:23N 59°57' E 030°12'  

Dump ship's entire track history